Enter the Airport ICAO Code

Search by Airport or City

Current Weather

LEGR | Federico García Lorca Airport (Granada Jaén Airport)

Granada, Andalusia, Spain

Last Update 33 Minutes Ago

Sky with Few Clouds

Temperature of 33 ºC

Moderate Winds from West

Temperature

33 ºC

Dew Point Temperature

01 ºC

Relative Humidity

13.18 %

Wind Direction

West (250º, Without Significant Variations)

Wind Velocity

26 km/h (14 kt)

Gusts

None

Visibility

Greater than 10 Kilometers

Sea Level Pressure

1015 hPa (Hectopascals)

Layers of Clouds

5% to 30% of Sky Covered from 1067 mts (3500 ft) Above Ground Level.

METAR LEGR 121500Z 25014KT 9999 FEW035 33/01 Q1015

Weather Forecast

LEGR | Federico García Lorca Airport (Granada Jaén Airport)

Granada, Andalusia, Spain

Forecast valid for the next 23 Hours

From now on it is expected:

Clear Sky

Light to Moderate Winds from West

In 3 to 5 hours it is expected the begining of:

Light Winds from Variable Directions

Maximum Temperature

35 ºC in 22 Hours

Minimum Temperature

18 ºC in 13 Hours

TAF LEGR 121400Z 1215/1315 27008KT CAVOK TX35/1314Z TN18/1305Z BECMG 1219/1221 VRB02KT